sensor_id;sensor_type;location;lat;lon;timestamp;temperature;humidity
22430;DHT22;11382;48.086;11.632;2023-06-10T00:00:18;16.10;99.90
22430;DHT22;11382;48.086;11.632;2023-06-10T00:02:47;16.00;99.90
22430;DHT22;11382;48.086;11.632;2023-06-10T00:05:15;16.00;99.90
22430;DHT22;11382;48.086;11.632;2023-06-10T00:07:45;15.90;99.90
22430;DHT22;11382;48.086;11.632;2023-06-10T00:10:14;16.00;99.90
22430;DHT22;11382;48.086;11.632;2023-06-10T00:12:42;16.00;99.90
22430;DHT22;11382;48.086;11.632;2023-06-10T00:15:12;16.00;99.90
22430;DHT22;11382;48.086;11.632;2023-06-10T00:17:40;15.90;99.90
22430;DHT22;11382;48.086;11.632;2023-06-10T00:20:09;15.90;99.90
22430;DHT22;11382;48.086;11.632;2023-06-10T00:22:39;15.70;99.90
22430;DHT22;11382;48.086;11.632;2023-06-10T00:25:09;15.70;99.90
22430;DHT22;11382;48.086;11.632;2023-06-10T00:27:37;15.70;99.90
22430;DHT22;11382;48.086;11.632;2023-06-10T00:30:06;15.70;99.90
22430;DHT22;11382;48.086;11.632;2023-06-10T00:32:36;15.70;99.90
22430;DHT22;11382;48.086;11.632;2023-06-10T00:35:06;15.70;99.90
22430;DHT22;11382;48.086;11.632;2023-06-10T00:37:34;15.70;99.90
22430;DHT22;11382;48.086;11.632;2023-06-10T00:40:03;15.70;99.90
22430;DHT22;11382;48.086;11.632;2023-06-10T00:42:31;15.70;99.90
22430;DHT22;11382;48.086;11.632;2023-06-10T00:44:59;15.60;99.90
22430;DHT22;11382;48.086;11.632;2023-06-10T00:47:28;15.60;99.90
22430;DHT22;11382;48.086;11.632;2023-06-10T00:49:59;15.60;99.90
22430;DHT22;11382;48.086;11.632;2023-06-10T00:52:29;15.50;99.90
22430;DHT22;11382;48.086;11.632;2023-06-10T00:54:57;15.60;99.90
22430;DHT22;11382;48.086;11.632;2023-06-10T00:57:26;15.40;99.90
22430;DHT22;11382;48.086;11.632;2023-06-10T00:59:54;15.40;99.90
22430;DHT22;11382;48.086;11.632;2023-06-10T01:02:22;15.30;99.90
22430;DHT22;11382;48.086;11.632;2023-06-10T01:04:50;15.10;99.90
22430;DHT22;11382;48.086;11.632;2023-06-10T01:07:24;15.00;99.90
22430;DHT22;11382;48.086;11.632;2023-06-10T01:09:55;14.90;99.90
22430;DHT22;11382;48.086;11.632;2023-06-10T01:12:29;14.90;99.90
22430;DHT22;11382;48.086;11.632;2023-06-10T01:14:59;15.00;99.90
22430;DHT22;11382;48.086;11.632;2023-06-10T01:17:28;15.00;99.90
22430;DHT22;11382;48.086;11.632;2023-06-10T01:19:57;15.00;99.90
22430;DHT22;11382;48.086;11.632;2023-06-10T01:22:29;15.00;99.90
22430;DHT22;11382;48.086;11.632;2023-06-10T01:24:59;15.00;99.90
22430;DHT22;11382;48.086;11.632;2023-06-10T01:27:30;14.80;99.90
22430;DHT22;11382;48.086;11.632;2023-06-10T01:30:05;14.70;99.90
22430;DHT22;11382;48.086;11.632;2023-06-10T01:32:37;14.70;99.90
22430;DHT22;11382;48.086;11.632;2023-06-10T01:35:08;14.60;99.90
22430;DHT22;11382;48.086;11.632;2023-06-10T01:37:39;14.70;99.90
22430;DHT22;11382;48.086;11.632;2023-06-10T01:40:11;14.60;99.90
22430;DHT22;11382;48.086;11.632;2023-06-10T01:42:40;14.50;99.90
22430;DHT22;11382;48.086;11.632;2023-06-10T01:45:09;14.30;99.90
22430;DHT22;11382;48.086;11.632;2023-06-10T01:47:37;14.40;99.90
22430;DHT22;11382;48.086;11.632;2023-06-10T01:50:06;14.40;99.90
22430;DHT22;11382;48.086;11.632;2023-06-10T01:52:34;14.30;99.90
22430;DHT22;11382;48.086;11.632;2023-06-10T01:55:05;14.20;99.90
22430;DHT22;11382;48.086;11.632;2023-06-10T01:57:33;14.20;99.90
22430;DHT22;11382;48.086;11.632;2023-06-10T02:00:02;14.10;99.90
22430;DHT22;11382;48.086;11.632;2023-06-10T02:02:40;13.90;99.90
22430;DHT22;11382;48.086;11.632;2023-06-10T02:05:08;13.70;99.90
22430;DHT22;11382;48.086;11.632;2023-06-10T02:07:37;13.70;99.90
22430;DHT22;11382;48.086;11.632;2023-06-10T02:10:08;13.70;99.90
22430;DHT22;11382;48.086;11.632;2023-06-10T02:12:36;13.70;99.90
22430;DHT22;11382;48.086;11.632;2023-06-10T02:15:04;13.80;99.90
22430;DHT22;11382;48.086;11.632;2023-06-10T02:17:32;13.80;99.90
22430;DHT22;11382;48.086;11.632;2023-06-10T02:20:00;13.80;99.90
22430;DHT22;11382;48.086;11.632;2023-06-10T02:22:33;13.90;99.90
22430;DHT22;11382;48.086;11.632;2023-06-10T02:25:01;13.70;99.90
22430;DHT22;11382;48.086;11.632;2023-06-10T02:27:32;13.60;99.90
22430;DHT22;11382;48.086;11.632;2023-06-10T02:30:00;13.60;99.90
22430;DHT22;11382;48.086;11.632;2023-06-10T02:32:31;13.60;99.90
22430;DHT22;11382;48.086;11.632;2023-06-10T02:34:59;13.40;99.90
22430;DHT22;11382;48.086;11.632;2023-06-10T02:37:29;13.40;99.90
22430;DHT22;11382;48.086;11.632;2023-06-10T02:39:57;13.40;99.90
22430;DHT22;11382;48.086;11.632;2023-06-10T02:42:26;13.30;99.90
22430;DHT22;11382;48.086;11.632;2023-06-10T02:44:55;13.30;99.90
22430;DHT22;11382;48.086;11.632;2023-06-10T02:47:33;13.30;99.90
22430;DHT22;11382;48.086;11.632;2023-06-10T02:50:03;13.20;99.90
22430;DHT22;11382;48.086;11.632;2023-06-10T02:52:35;13.10;99.90
22430;DHT22;11382;48.086;11.632;2023-06-10T02:55:05;13.00;99.90
22430;DHT22;11382;48.086;11.632;2023-06-10T02:57:34;12.90;99.90
22430;DHT22;11382;48.086;11.632;2023-06-10T03:00:06;12.80;99.90
22430;DHT22;11382;48.086;11.632;2023-06-10T03:02:38;12.80;99.90
22430;DHT22;11382;48.086;11.632;2023-06-10T03:05:08;12.70;99.90
22430;DHT22;11382;48.086;11.632;2023-06-10T03:07:41;12.70;99.90
22430;DHT22;11382;48.086;11.632;2023-06-10T03:10:09;12.70;99.90
22430;DHT22;11382;48.086;11.632;2023-06-10T03:12:39;12.80;99.90
22430;DHT22;11382;48.086;11.632;2023-06-10T03:15:09;12.70;99.90
22430;DHT22;11382;48.086;11.632;2023-06-10T03:17:39;12.80;99.90
22430;DHT22;11382;48.086;11.632;2023-06-10T03:20:08;12.80;99.90
22430;DHT22;11382;48.086;11.632;2023-06-10T03:22:38;12.70;99.90
22430;DHT22;11382;48.086;11.632;2023-06-10T03:25:09;12.70;99.90
22430;DHT22;11382;48.086;11.632;2023-06-10T03:27:44;12.60;99.90
22430;DHT22;11382;48.086;11.632;2023-06-10T03:30:14;12.60;99.90
22430;DHT22;11382;48.086;11.632;2023-06-10T03:32:44;12.60;99.90
22430;DHT22;11382;48.086;11.632;2023-06-10T03:35:15;12.60;99.90
22430;DHT22;11382;48.086;11.632;2023-06-10T03:37:44;12.70;99.90
22430;DHT22;11382;48.086;11.632;2023-06-10T03:40:12;12.70;99.90
22430;DHT22;11382;48.086;11.632;2023-06-10T03:42:44;12.80;99.90
22430;DHT22;11382;48.086;11.632;2023-06-10T03:45:15;12.80;99.90
22430;DHT22;11382;48.086;11.632;2023-06-10T03:47:45;12.80;99.90
22430;DHT22;11382;48.086;11.632;2023-06-10T03:50:17;12.80;99.90
22430;DHT22;11382;48.086;11.632;2023-06-10T03:52:46;12.70;99.90
22430;DHT22;11382;48.086;11.632;2023-06-10T03:55:16;12.70;99.90
22430;DHT22;11382;48.086;11.632;2023-06-10T03:57:45;12.80;99.90
22430;DHT22;11382;48.086;11.632;2023-06-10T04:00:15;13.00;99.90
22430;DHT22;11382;48.086;11.632;2023-06-10T04:02:44;13.10;99.90
22430;DHT22;11382;48.086;11.632;2023-06-10T04:05:23;13.10;99.90
22430;DHT22;11382;48.086;11.632;2023-06-10T04:07:51;13.30;99.90
22430;DHT22;11382;48.086;11.632;2023-06-10T04:10:20;13.50;99.90
22430;DHT22;11382;48.086;11.632;2023-06-10T04:12:48;13.70;99.90
22430;DHT22;11382;48.086;11.632;2023-06-10T04:15:18;14.00;99.90
22430;DHT22;11382;48.086;11.632;2023-06-10T04:17:47;14.40;99.90
22430;DHT22;11382;48.086;11.632;2023-06-10T04:20:18;14.80;99.90
22430;DHT22;11382;48.086;11.632;2023-06-10T04:22:47;15.30;99.90
22430;DHT22;11382;48.086;11.632;2023-06-10T04:25:16;15.90;99.90
22430;DHT22;11382;48.086;11.632;2023-06-10T04:27:44;16.50;99.90
22430;DHT22;11382;48.086;11.632;2023-06-10T04:30:13;17.00;99.90
22430;DHT22;11382;48.086;11.632;2023-06-10T04:32:44;17.50;99.90
22430;DHT22;11382;48.086;11.632;2023-06-10T04:35:15;17.80;99.90
22430;DHT22;11382;48.086;11.632;2023-06-10T04:37:45;18.20;99.90
22430;DHT22;11382;48.086;11.632;2023-06-10T04:40:13;18.70;99.90
22430;DHT22;11382;48.086;11.632;2023-06-10T04:42:42;18.90;99.90
22430;DHT22;11382;48.086;11.632;2023-06-10T04:45:10;19.50;99.90
22430;DHT22;11382;48.086;11.632;2023-06-10T04:47:39;20.30;99.90
22430;DHT22;11382;48.086;11.632;2023-06-10T04:50:09;20.90;99.90
22430;DHT22;11382;48.086;11.632;2023-06-10T04:52:38;21.20;99.90
22430;DHT22;11382;48.086;11.632;2023-06-10T04:55:09;21.60;99.90
22430;DHT22;11382;48.086;11.632;2023-06-10T04:57:38;21.80;99.90
22430;DHT22;11382;48.086;11.632;2023-06-10T05:00:07;22.00;99.90
22430;DHT22;11382;48.086;11.632;2023-06-10T05:02:35;22.20;99.90
22430;DHT22;11382;48.086;11.632;2023-06-10T05:05:03;22.70;99.90
22430;DHT22;11382;48.086;11.632;2023-06-10T05:07:32;23.50;99.90
22430;DHT22;11382;48.086;11.632;2023-06-10T05:10:00;24.20;99.90
22430;DHT22;11382;48.086;11.632;2023-06-10T05:12:29;24.60;99.90
22430;DHT22;11382;48.086;11.632;2023-06-10T05:14:57;24.80;99.90
22430;DHT22;11382;48.086;11.632;2023-06-10T05:17:25;25.20;99.90
22430;DHT22;11382;48.086;11.632;2023-06-10T05:19:54;25.90;99.90
22430;DHT22;11382;48.086;11.632;2023-06-10T05:22:22;26.10;99.90
22430;DHT22;11382;48.086;11.632;2023-06-10T05:24:52;26.70;98.30
22430;DHT22;11382;48.086;11.632;2023-06-10T05:27:20;26.80;97.10
22430;DHT22;11382;48.086;11.632;2023-06-10T05:29:49;26.90;96.60
22430;DHT22;11382;48.086;11.632;2023-06-10T05:32:18;27.20;96.40
22430;DHT22;11382;48.086;11.632;2023-06-10T05:34:46;27.40;96.90
22430;DHT22;11382;48.086;11.632;2023-06-10T05:37:14;28.20;94.80
22430;DHT22;11382;48.086;11.632;2023-06-10T05:39:42;28.70;93.80
22430;DHT22;11382;48.086;11.632;2023-06-10T05:42:11;29.50;92.00
22430;DHT22;11382;48.086;11.632;2023-06-10T05:44:39;30.00;90.50
22430;DHT22;11382;48.086;11.632;2023-06-10T05:47:07;29.70;88.90
22430;DHT22;11382;48.086;11.632;2023-06-10T05:49:35;29.20;90.00
22430;DHT22;11382;48.086;11.632;2023-06-10T05:52:04;29.30;89.70
22430;DHT22;11382;48.086;11.632;2023-06-10T05:54:32;28.40;90.40
22430;DHT22;11382;48.086;11.632;2023-06-10T05:57:00;28.90;90.40
22430;DHT22;11382;48.086;11.632;2023-06-10T05:59:29;29.50;88.90
22430;DHT22;11382;48.086;11.632;2023-06-10T06:01:57;30.30;86.80
22430;DHT22;11382;48.086;11.632;2023-06-10T06:04:26;30.60;84.20
22430;DHT22;11382;48.086;11.632;2023-06-10T06:06:54;29.60;85.30
22430;DHT22;11382;48.086;11.632;2023-06-10T06:09:22;29.70;85.10
22430;DHT22;11382;48.086;11.632;2023-06-10T06:11:49;30.30;83.40
22430;DHT22;11382;48.086;11.632;2023-06-10T06:14:17;30.90;82.50
22430;DHT22;11382;48.086;11.632;2023-06-10T06:16:47;30.50;81.60
22430;DHT22;11382;48.086;11.632;2023-06-10T06:19:15;31.00;80.40
22430;DHT22;11382;48.086;11.632;2023-06-10T06:21:43;32.40;78.20
22430;DHT22;11382;48.086;11.632;2023-06-10T06:24:11;32.60;75.10
22430;DHT22;11382;48.086;11.632;2023-06-10T06:26:39;33.90;73.30
22430;DHT22;11382;48.086;11.632;2023-06-10T06:29:07;34.80;70.20
22430;DHT22;11382;48.086;11.632;2023-06-10T06:31:34;34.70;68.30
22430;DHT22;11382;48.086;11.632;2023-06-10T06:34:04;34.70;65.90
22430;DHT22;11382;48.086;11.632;2023-06-10T06:36:32;34.50;65.80
22430;DHT22;11382;48.086;11.632;2023-06-10T06:39:00;35.50;64.20
22430;DHT22;11382;48.086;11.632;2023-06-10T06:41:28;34.70;64.40
22430;DHT22;11382;48.086;11.632;2023-06-10T06:43:56;35.60;62.20
22430;DHT22;11382;48.086;11.632;2023-06-10T06:46:29;35.60;61.00
22430;DHT22;11382;48.086;11.632;2023-06-10T06:48:57;34.10;63.60
22430;DHT22;11382;48.086;11.632;2023-06-10T06:51:26;33.20;65.00
22430;DHT22;11382;48.086;11.632;2023-06-10T06:53:55;32.30;66.90
22430;DHT22;11382;48.086;11.632;2023-06-10T06:56:25;31.50;69.20
22430;DHT22;11382;48.086;11.632;2023-06-10T06:58:54;31.80;69.10
22430;DHT22;11382;48.086;11.632;2023-06-10T07:01:24;31.70;69.10
22430;DHT22;11382;48.086;11.632;2023-06-10T07:03:52;32.70;66.50
22430;DHT22;11382;48.086;11.632;2023-06-10T07:06:20;33.00;65.70
22430;DHT22;11382;48.086;11.632;2023-06-10T07:08:50;33.10;64.90
22430;DHT22;11382;48.086;11.632;2023-06-10T07:11:18;34.30;64.00
22430;DHT22;11382;48.086;11.632;2023-06-10T07:13:46;35.00;61.60
22430;DHT22;11382;48.086;11.632;2023-06-10T07:16:14;35.50;61.40
22430;DHT22;11382;48.086;11.632;2023-06-10T07:18:42;36.10;60.10
22430;DHT22;11382;48.086;11.632;2023-06-10T07:21:11;37.20;58.80
22430;DHT22;11382;48.086;11.632;2023-06-10T07:23:42;37.30;56.90
22430;DHT22;11382;48.086;11.632;2023-06-10T07:26:12;38.30;55.50
22430;DHT22;11382;48.086;11.632;2023-06-10T07:28:40;39.00;52.80
22430;DHT22;11382;48.086;11.632;2023-06-10T07:31:08;38.80;52.70
22430;DHT22;11382;48.086;11.632;2023-06-10T07:33:38;39.60;51.40
22430;DHT22;11382;48.086;11.632;2023-06-10T07:36:07;38.20;52.50
22430;DHT22;11382;48.086;11.632;2023-06-10T07:38:35;39.20;51.90
22430;DHT22;11382;48.086;11.632;2023-06-10T07:41:03;37.70;50.40
22430;DHT22;11382;48.086;11.632;2023-06-10T07:43:33;35.80;54.70
22430;DHT22;11382;48.086;11.632;2023-06-10T07:46:00;36.70;54.10
22430;DHT22;11382;48.086;11.632;2023-06-10T07:48:29;39.20;51.80
22430;DHT22;11382;48.086;11.632;2023-06-10T07:50:56;40.00;51.50
22430;DHT22;11382;48.086;11.632;2023-06-10T07:53:24;39.50;50.80
22430;DHT22;11382;48.086;11.632;2023-06-10T07:55:53;39.00;49.90
22430;DHT22;11382;48.086;11.632;2023-06-10T07:58:20;37.00;53.30
22430;DHT22;11382;48.086;11.632;2023-06-10T08:00:50;38.20;51.90
22430;DHT22;11382;48.086;11.632;2023-06-10T08:03:18;39.30;50.70
22430;DHT22;11382;48.086;11.632;2023-06-10T08:05:47;40.20;48.70
22430;DHT22;11382;48.086;11.632;2023-06-10T08:08:18;40.60;48.10
22430;DHT22;11382;48.086;11.632;2023-06-10T08:10:47;40.40;46.00
22430;DHT22;11382;48.086;11.632;2023-06-10T08:13:17;40.10;47.80
22430;DHT22;11382;48.086;11.632;2023-06-10T08:15:49;39.90;46.30
22430;DHT22;11382;48.086;11.632;2023-06-10T08:18:22;41.10;45.30
22430;DHT22;11382;48.086;11.632;2023-06-10T08:20:52;43.30;43.90
22430;DHT22;11382;48.086;11.632;2023-06-10T08:23:20;38.50;45.80
22430;DHT22;11382;48.086;11.632;2023-06-10T08:25:49;35.10;51.00
22430;DHT22;11382;48.086;11.632;2023-06-10T08:28:18;33.30;55.30
22430;DHT22;11382;48.086;11.632;2023-06-10T08:30:46;33.60;55.80
22430;DHT22;11382;48.086;11.632;2023-06-10T08:33:15;34.40;55.30
22430;DHT22;11382;48.086;11.632;2023-06-10T08:35:43;35.80;52.40
22430;DHT22;11382;48.086;11.632;2023-06-10T08:38:11;38.00;49.80
22430;DHT22;11382;48.086;11.632;2023-06-10T08:40:39;38.80;47.00
22430;DHT22;11382;48.086;11.632;2023-06-10T08:43:08;37.00;47.90
22430;DHT22;11382;48.086;11.632;2023-06-10T08:45:36;37.40;48.50
22430;DHT22;11382;48.086;11.632;2023-06-10T08:48:06;36.70;48.60
22430;DHT22;11382;48.086;11.632;2023-06-10T08:50:38;37.00;49.30
22430;DHT22;11382;48.086;11.632;2023-06-10T08:53:07;35.10;51.80
22430;DHT22;11382;48.086;11.632;2023-06-10T08:55:37;35.00;52.30
22430;DHT22;11382;48.086;11.632;2023-06-10T08:58:06;35.80;51.10
22430;DHT22;11382;48.086;11.632;2023-06-10T09:00:35;37.10;48.80
22430;DHT22;11382;48.086;11.632;2023-06-10T09:03:04;36.20;50.10
22430;DHT22;11382;48.086;11.632;2023-06-10T09:05:37;33.60;53.20
22430;DHT22;11382;48.086;11.632;2023-06-10T09:08:06;31.40;55.90
22430;DHT22;11382;48.086;11.632;2023-06-10T09:10:34;29.80;59.90
22430;DHT22;11382;48.086;11.632;2023-06-10T09:13:02;32.50;56.70
22430;DHT22;11382;48.086;11.632;2023-06-10T09:15:32;36.00;51.60
22430;DHT22;11382;48.086;11.632;2023-06-10T09:18:00;36.10;49.80
22430;DHT22;11382;48.086;11.632;2023-06-10T09:20:28;38.00;48.10
22430;DHT22;11382;48.086;11.632;2023-06-10T09:22:59;38.70;46.10
22430;DHT22;11382;48.086;11.632;2023-06-10T09:25:35;40.00;45.70
22430;DHT22;11382;48.086;11.632;2023-06-10T09:28:05;39.80;44.70
22430;DHT22;11382;48.086;11.632;2023-06-10T09:30:40;40.10;44.40
22430;DHT22;11382;48.086;11.632;2023-06-10T09:33:11;42.00;42.10
22430;DHT22;11382;48.086;11.632;2023-06-10T09:35:45;43.20;41.70
22430;DHT22;11382;48.086;11.632;2023-06-10T09:38:19;40.40;43.60
22430;DHT22;11382;48.086;11.632;2023-06-10T09:40:51;41.60;43.80
22430;DHT22;11382;48.086;11.632;2023-06-10T09:43:21;38.50;45.90
22430;DHT22;11382;48.086;11.632;2023-06-10T09:45:49;35.80;49.70
22430;DHT22;11382;48.086;11.632;2023-06-10T09:48:20;31.80;55.30
22430;DHT22;11382;48.086;11.632;2023-06-10T09:50:49;30.20;59.10
22430;DHT22;11382;48.086;11.632;2023-06-10T09:53:18;28.60;62.20
22430;DHT22;11382;48.086;11.632;2023-06-10T09:55:46;28.10;64.20
22430;DHT22;11382;48.086;11.632;2023-06-10T09:58:14;27.90;65.30
22430;DHT22;11382;48.086;11.632;2023-06-10T10:00:43;29.60;64.40
22430;DHT22;11382;48.086;11.632;2023-06-10T10:03:22;33.50;58.00
22430;DHT22;11382;48.086;11.632;2023-06-10T10:05:57;35.60;51.40
22430;DHT22;11382;48.086;11.632;2023-06-10T10:08:27;36.60;50.00
22430;DHT22;11382;48.086;11.632;2023-06-10T10:10:57;34.30;52.10
22430;DHT22;11382;48.086;11.632;2023-06-10T10:13:26;31.90;55.90
22430;DHT22;11382;48.086;11.632;2023-06-10T10:15:57;29.90;58.90
22430;DHT22;11382;48.086;11.632;2023-06-10T10:18:29;29.60;61.60
22430;DHT22;11382;48.086;11.632;2023-06-10T10:21:02;31.50;59.00
22430;DHT22;11382;48.086;11.632;2023-06-10T10:23:39;32.80;55.80
22430;DHT22;11382;48.086;11.632;2023-06-10T10:26:10;34.90;52.60
22430;DHT22;11382;48.086;11.632;2023-06-10T10:28:42;36.80;49.70
22430;DHT22;11382;48.086;11.632;2023-06-10T10:31:15;37.60;47.60
22430;DHT22;11382;48.086;11.632;2023-06-10T10:33:51;37.50;47.80
22430;DHT22;11382;48.086;11.632;2023-06-10T10:36:21;35.70;49.50
22430;DHT22;11382;48.086;11.632;2023-06-10T10:38:50;34.20;53.00
22430;DHT22;11382;48.086;11.632;2023-06-10T10:41:19;34.00;55.10
22430;DHT22;11382;48.086;11.632;2023-06-10T10:43:49;32.60;54.60
22430;DHT22;11382;48.086;11.632;2023-06-10T10:46:18;30.80;57.50
22430;DHT22;11382;48.086;11.632;2023-06-10T10:48:52;30.00;59.70
22430;DHT22;11382;48.086;11.632;2023-06-10T10:51:22;29.00;62.10
22430;DHT22;11382;48.086;11.632;2023-06-10T10:54:11;29.20;63.00
22430;DHT22;11382;48.086;11.632;2023-06-10T10:57:09;28.30;63.30
22430;DHT22;11382;48.086;11.632;2023-06-10T10:59:58;27.70;65.80
22430;DHT22;11382;48.086;11.632;2023-06-10T11:02:33;27.50;66.30
22430;DHT22;11382;48.086;11.632;2023-06-10T11:05:02;27.90;65.70
22430;DHT22;11382;48.086;11.632;2023-06-10T11:07:31;30.00;62.70
22430;DHT22;11382;48.086;11.632;2023-06-10T11:10:03;32.50;57.90
22430;DHT22;11382;48.086;11.632;2023-06-10T11:12:50;35.30;51.80
22430;DHT22;11382;48.086;11.632;2023-06-10T11:15:19;33.10;52.90
22430;DHT22;11382;48.086;11.632;2023-06-10T11:20:55;29.40;59.70
22430;DHT22;11382;48.086;11.632;2023-06-10T11:23:32;29.30;60.50
22430;DHT22;11382;48.086;11.632;2023-06-10T11:26:17;29.50;60.60
22430;DHT22;11382;48.086;11.632;2023-06-10T11:29:04;29.40;60.20
22430;DHT22;11382;48.086;11.632;2023-06-10T11:31:35;29.40;60.50
22430;DHT22;11382;48.086;11.632;2023-06-10T11:34:06;29.00;62.50
22430;DHT22;11382;48.086;11.632;2023-06-10T11:36:36;32.20;57.00
22430;DHT22;11382;48.086;11.632;2023-06-10T11:39:05;34.20;53.90
22430;DHT22;11382;48.086;11.632;2023-06-10T11:41:37;35.30;50.10
22430;DHT22;11382;48.086;11.632;2023-06-10T11:44:08;36.40;49.00
22430;DHT22;11382;48.086;11.632;2023-06-10T11:46:37;37.30;47.30
22430;DHT22;11382;48.086;11.632;2023-06-10T11:49:06;38.10;45.70
22430;DHT22;11382;48.086;11.632;2023-06-10T11:51:35;37.70;45.60
22430;DHT22;11382;48.086;11.632;2023-06-10T11:54:05;37.90;45.60
22430;DHT22;11382;48.086;11.632;2023-06-10T11:56:34;35.90;47.60
22430;DHT22;11382;48.086;11.632;2023-06-10T11:59:03;33.80;51.80
22430;DHT22;11382;48.086;11.632;2023-06-10T12:01:35;31.30;54.50
22430;DHT22;11382;48.086;11.632;2023-06-10T12:04:06;30.70;55.90
22430;DHT22;11382;48.086;11.632;2023-06-10T12:06:39;29.70;58.70
22430;DHT22;11382;48.086;11.632;2023-06-10T12:09:12;28.90;62.20
22430;DHT22;11382;48.086;11.632;2023-06-10T12:11:52;28.80;61.10
22430;DHT22;11382;48.086;11.632;2023-06-10T12:14:51;28.60;60.10
22430;DHT22;11382;48.086;11.632;2023-06-10T12:17:21;28.60;61.60
22430;DHT22;11382;48.086;11.632;2023-06-10T12:19:50;28.40;61.70
22430;DHT22;11382;48.086;11.632;2023-06-10T12:22:18;28.20;62.20
22430;DHT22;11382;48.086;11.632;2023-06-10T12:24:58;27.80;61.50
22430;DHT22;11382;48.086;11.632;2023-06-10T12:27:29;27.60;59.70
22430;DHT22;11382;48.086;11.632;2023-06-10T12:29:59;27.40;59.60
22430;DHT22;11382;48.086;11.632;2023-06-10T12:32:38;27.70;61.50
22430;DHT22;11382;48.086;11.632;2023-06-10T12:35:07;27.70;60.00
22430;DHT22;11382;48.086;11.632;2023-06-10T12:37:36;27.50;60.30
22430;DHT22;11382;48.086;11.632;2023-06-10T12:40:09;27.20;60.30
22430;DHT22;11382;48.086;11.632;2023-06-10T12:42:39;27.70;60.20
22430;DHT22;11382;48.086;11.632;2023-06-10T12:45:09;27.70;60.40
22430;DHT22;11382;48.086;11.632;2023-06-10T12:47:39;27.30;61.10
22430;DHT22;11382;48.086;11.632;2023-06-10T12:50:09;27.40;61.20
22430;DHT22;11382;48.086;11.632;2023-06-10T12:52:39;27.00;61.70
22430;DHT22;11382;48.086;11.632;2023-06-10T12:55:08;26.50;66.50
22430;DHT22;11382;48.086;11.632;2023-06-10T12:57:38;26.20;68.50
22430;DHT22;11382;48.086;11.632;2023-06-10T13:00:16;25.90;68.60
22430;DHT22;11382;48.086;11.632;2023-06-10T13:02:44;25.90;71.00
22430;DHT22;11382;48.086;11.632;2023-06-10T13:05:12;26.10;70.00
22430;DHT22;11382;48.086;11.632;2023-06-10T13:07:43;26.20;70.00
22430;DHT22;11382;48.086;11.632;2023-06-10T13:10:12;26.30;71.70
22430;DHT22;11382;48.086;11.632;2023-06-10T13:12:41;26.40;71.20
22430;DHT22;11382;48.086;11.632;2023-06-10T13:15:14;26.70;71.80
22430;DHT22;11382;48.086;11.632;2023-06-10T13:17:43;26.60;72.90
22430;DHT22;11382;48.086;11.632;2023-06-10T13:20:12;26.90;72.00
22430;DHT22;11382;48.086;11.632;2023-06-10T13:22:40;26.60;72.10
22430;DHT22;11382;48.086;11.632;2023-06-10T13:25:09;26.60;72.10
22430;DHT22;11382;48.086;11.632;2023-06-10T13:27:38;26.40;72.00
22430;DHT22;11382;48.086;11.632;2023-06-10T13:30:10;26.10;73.00
22430;DHT22;11382;48.086;11.632;2023-06-10T13:32:38;26.00;74.10
22430;DHT22;11382;48.086;11.632;2023-06-10T13:35:07;25.70;73.00
22430;DHT22;11382;48.086;11.632;2023-06-10T13:37:36;25.70;73.50
22430;DHT22;11382;48.086;11.632;2023-06-10T13:40:06;25.50;74.30
22430;DHT22;11382;48.086;11.632;2023-06-10T13:42:35;25.50;75.30
22430;DHT22;11382;48.086;11.632;2023-06-10T13:45:04;25.40;73.90
22430;DHT22;11382;48.086;11.632;2023-06-10T13:47:34;25.30;74.70
22430;DHT22;11382;48.086;11.632;2023-06-10T13:50:02;25.30;74.20
22430;DHT22;11382;48.086;11.632;2023-06-10T13:52:30;25.20;73.40
22430;DHT22;11382;48.086;11.632;2023-06-10T13:54:58;25.30;73.80
22430;DHT22;11382;48.086;11.632;2023-06-10T13:57:26;25.20;72.10
22430;DHT22;11382;48.086;11.632;2023-06-10T13:59:54;25.10;73.00
22430;DHT22;11382;48.086;11.632;2023-06-10T14:02:23;25.10;73.50
22430;DHT22;11382;48.086;11.632;2023-06-10T14:04:52;25.10;72.50
22430;DHT22;11382;48.086;11.632;2023-06-10T14:07:20;25.20;72.50
22430;DHT22;11382;48.086;11.632;2023-06-10T14:09:48;24.90;72.40
22430;DHT22;11382;48.086;11.632;2023-06-10T14:12:17;24.80;72.10
22430;DHT22;11382;48.086;11.632;2023-06-10T14:14:45;24.60;73.40
22430;DHT22;11382;48.086;11.632;2023-06-10T14:17:13;24.40;72.20
22430;DHT22;11382;48.086;11.632;2023-06-10T14:19:41;24.40;74.00
22430;DHT22;11382;48.086;11.632;2023-06-10T14:22:10;24.40;74.00
22430;DHT22;11382;48.086;11.632;2023-06-10T14:24:38;24.40;75.10
22430;DHT22;11382;48.086;11.632;2023-06-10T14:27:06;24.20;77.00
22430;DHT22;11382;48.086;11.632;2023-06-10T14:29:34;24.30;76.80
22430;DHT22;11382;48.086;11.632;2023-06-10T14:32:03;24.20;77.00
22430;DHT22;11382;48.086;11.632;2023-06-10T14:34:35;24.40;78.20
22430;DHT22;11382;48.086;11.632;2023-06-10T14:37:03;24.60;77.60
22430;DHT22;11382;48.086;11.632;2023-06-10T14:39:35;24.50;78.40
22430;DHT22;11382;48.086;11.632;2023-06-10T14:42:04;24.50;77.20
22430;DHT22;11382;48.086;11.632;2023-06-10T14:44:32;24.50;75.70
22430;DHT22;11382;48.086;11.632;2023-06-10T14:47:00;24.60;76.70
22430;DHT22;11382;48.086;11.632;2023-06-10T14:49:28;24.70;75.90
22430;DHT22;11382;48.086;11.632;2023-06-10T14:51:56;24.70;75.20
22430;DHT22;11382;48.086;11.632;2023-06-10T14:54:24;24.60;74.20
22430;DHT22;11382;48.086;11.632;2023-06-10T14:56:53;24.80;74.20
22430;DHT22;11382;48.086;11.632;2023-06-10T14:59:21;25.00;73.20
22430;DHT22;11382;48.086;11.632;2023-06-10T15:01:49;25.00;73.60
22430;DHT22;11382;48.086;11.632;2023-06-10T15:04:17;25.30;72.00
22430;DHT22;11382;48.086;11.632;2023-06-10T15:06:50;25.50;73.10
22430;DHT22;11382;48.086;11.632;2023-06-10T15:09:18;25.60;75.20
22430;DHT22;11382;48.086;11.632;2023-06-10T15:11:46;25.60;76.60
22430;DHT22;11382;48.086;11.632;2023-06-10T15:14:15;26.00;76.10
22430;DHT22;11382;48.086;11.632;2023-06-10T15:16:43;25.80;76.10
22430;DHT22;11382;48.086;11.632;2023-06-10T15:19:11;25.90;75.30
22430;DHT22;11382;48.086;11.632;2023-06-10T15:21:39;26.00;75.50
22430;DHT22;11382;48.086;11.632;2023-06-10T15:24:07;26.30;75.00
22430;DHT22;11382;48.086;11.632;2023-06-10T15:26:36;26.00;73.20
22430;DHT22;11382;48.086;11.632;2023-06-10T15:29:03;25.90;72.40
22430;DHT22;11382;48.086;11.632;2023-06-10T15:31:34;25.70;73.30
22430;DHT22;11382;48.086;11.632;2023-06-10T15:34:02;25.60;74.60